Happy Valentine's Day! 

Flight Track Log - Related Links

Times and Time Zones

All times are in EST time to prevent confusion due to time zone crossing. See the FIN666 flight status page for this flight to view local times or setup timezone preferences in your user account.


Time Position Orientation Groundspeed Altitude Reporting Facility
EST Latitude Longitude Course Direction KTS MPH feet Rate Location/Type
Sat 07:33:00 AM 55.8486 13.1329 49° Northeast  Level Estimated
Sat 07:34:00 AM 55.9251 13.2931 50° Northeast  Level Estimated
Sat 07:35:00 AM 56.0014 13.4539 50° Northeast  Level Estimated
Sat 07:36:00 AM 56.0774 13.6154 50° Northeast  Level Estimated
Sat 07:37:00 AM 56.1533 13.7775 50° Northeast  Level Estimated
Sat 07:38:00 AM 56.2301 13.9427 50° Northeast  Level Estimated
Sat 07:39:00 AM 56.3066 14.1086 50° Northeast  Level Estimated
Sat 07:40:00 AM 56.3829 14.2751 50° Northeast  Level Estimated
Sat 07:41:00 AM 56.4590 14.4423 50° Northeast  Level Estimated
Sat 07:42:00 AM 56.5349 14.6102 51° Northeast  Level Estimated
Sat 07:43:00 AM 56.6105 14.7788 51° Northeast  Level Estimated
Sat 07:44:00 AM 56.6860 14.9480 51° Northeast  Level Estimated
Sat 07:45:00 AM 56.7612 15.1179 51° Northeast  Level Estimated
Sat 07:46:00 AM 56.8361 15.2884 51° Northeast  Level Estimated
Sat 07:47:00 AM 56.9108 15.4597 51° Northeast  Level Estimated
Sat 07:48:00 AM 56.9853 15.6316 51° Northeast  Level Estimated
Sat 07:49:00 AM 57.0596 15.8043 52° Northeast  Level Estimated
Sat 07:50:00 AM 57.1347 15.9802 52° Northeast  Level Estimated
Sat 07:51:00 AM 57.2096 16.1569 52° Northeast  Level Estimated
Sat 07:52:00 AM 57.2842 16.3343 52° Northeast  Level Estimated
Sat 07:53:00 AM 57.3586 16.5124 52° Northeast  Level Estimated
Sat 07:54:00 AM 57.4328 16.6912 52° Northeast  Level Estimated
Sat 07:55:00 AM 57.5066 16.8708 53° Northeast  Level Estimated
Sat 07:56:00 AM 57.5803 17.0510 53° Northeast  Level Estimated
Sat 07:57:00 AM 57.6536 17.2320 53° Northeast  Level Estimated
Sat 07:58:00 AM 57.7267 17.4138 53° Northeast  Level Estimated
Sat 07:59:00 AM 57.7996 17.5963 53° Northeast  Level Estimated
Sat 08:00:00 AM 57.8722 17.7795 53° Northeast  Level Estimated
Sat 08:01:00 AM 57.9445 17.9634 53° Northeast  Level Estimated
Sat 08:02:00 AM 58.0165 18.1481 54° Northeast  Level Estimated
Sat 08:03:00 AM 58.0883 18.3336 54° Northeast  Level Estimated
Sat 08:04:00 AM 58.1598 18.5197 54° Northeast  Level Estimated
Sat 08:05:00 AM 58.2311 18.7067 54° Northeast  Level Estimated
Sat 08:06:00 AM 58.3020 18.8944 54° Northeast  Level Estimated
Sat 08:07:00 AM 58.3727 19.0828 54° Northeast  Level Estimated
Sat 08:08:00 AM 58.4431 19.2720 55° Northeast  Level Estimated
Sat 08:09:00 AM 58.5132 19.4619 55° Northeast  Level Estimated
Sat 08:10:00 AM 58.5831 19.6526 55° Northeast  Level Estimated
Sat 08:11:00 AM 58.6527 19.8441 55° Northeast  Level Estimated
Sat 08:12:00 AM 58.7220 20.0363 55° Northeast  Level Estimated
Sat 08:13:00 AM 58.7909 20.2293 55° Northeast  Level Estimated
Sat 08:14:00 AM 58.8596 20.4231 56° Northeast  Level Estimated
Sat 08:15:00 AM 58.9281 20.6176 56° Northeast  Level Estimated
Sat 08:16:00 AM 58.9962 20.8129 56° Northeast  Level Estimated
Sat 08:17:00 AM 59.0640 21.0090 56° Northeast  Level Estimated
Sat 08:18:00 AM 59.1315 21.2059 56° Northeast  Level Estimated
Sat 08:19:00 AM 59.1978 21.4005 56° Northeast  Level Estimated
Sat 08:20:00 AM 59.2637 21.5960 57° Northeast  Level Estimated
Sat 08:21:00 AM 59.3293 21.7922 57° Northeast  Level Estimated
Sat 08:22:00 AM 59.3947 21.9891 57° Northeast  Level Estimated
Sat 08:23:00 AM 59.4597 22.1868 57° Northeast  Level Estimated
Sat 08:24:00 AM 59.5245 22.3853 57° Northeast  Level Estimated
Sat 08:25:00 AM 59.5889 22.5845 57° Northeast  Level Estimated
Sat 08:26:00 AM 59.6531 22.7845 58° Northeast  Level Estimated
Sat 08:27:00 AM 59.7169 22.9852 58° Northeast  Level Estimated
Sat 08:28:00 AM 59.7804 23.1867 58° Northeast  Level Estimated
Sat 08:29:00 AM 59.8437 23.3890 58° Northeast  Level Estimated
Sat 08:30:00 AM 59.9066 23.5921 58° Northeast  Level Estimated
Sat 08:31:00 AM 59.9692 23.7959 58° Northeast  Level Estimated
Sat 08:32:00 AM 60.0314 24.0005 59° Northeast  Level Estimated
Sat 08:33:00 AM 60.0934 24.2058 59° Northeast  Level Estimated
Sat 08:34:00 AM 60.1550 24.4120 59° Northeast  Level Estimated
Sat 08:35:00 AM 60.2164 24.6189 59° Northeast  Level Estimated
Sat 08:36:00 AM 60.2774 24.8265 59° Northeast  Level Estimated
Sat 08:37:00 AM 60.3172 24.9633 59° Northeast  Level Estimated
Sat 08:38:00 AM 60.3172 24.9633 37° Northeast  Level Estimated
Sat 08:39:00 AM 60.3172 24.9633 37° Northeast  Level Estimated
Sat 08:40:00 AM 60.3172 24.9633 37° Northeast  Level Estimated
Sat 08:41:00 AM 60.3172 24.9633 37° Northeast  Level Estimated
Sat 08:42:00 AM 60.3172 24.9633 37° Northeast  Level Estimated
Sat 08:43:00 AM 60.3172 24.9633 37° Northeast  Level Estimated
Sat 08:44:00 AM 60.3172 24.9633 37° Northeast  Level Estimated
Sat 08:45:00 AM 60.3172 24.9633 37° Northeast  Level Estimated
Sat 08:46:00 AM 60.3172 24.9633 37° Northeast  Level Estimated
Sat 08:47:00 AM 60.3172 24.9633 37° Northeast  Level Estimated
Sat 08:48:00 AM 60.3172 24.9633 37° Northeast  Level Estimated

Login

Don't have an account? Register now (free) for customized features, flight alerts, and more!